createdAt,value
2022-10-20T00:01:16.519Z,64.40
2022-10-20T00:03:44.404Z,64.60
2022-10-20T00:06:14.356Z,64.20
2022-10-20T00:08:42.793Z,64.50
2022-10-20T00:11:11.009Z,64.40
2022-10-20T00:13:39.325Z,64.10
2022-10-20T00:16:07.035Z,64.20
2022-10-20T00:18:34.751Z,64.10
2022-10-20T00:21:09.070Z,64.30
2022-10-20T00:23:36.623Z,64.30
2022-10-20T00:26:08.187Z,64.60
2022-10-20T00:28:35.379Z,64.40
2022-10-20T00:31:04.097Z,64.20
2022-10-20T00:33:31.348Z,64.30
2022-10-20T00:36:01.957Z,64.10
2022-10-20T00:38:28.980Z,64.20
2022-10-20T00:40:55.913Z,64.50
2022-10-20T00:43:24.168Z,64.50
2022-10-20T00:45:56.233Z,64.40
2022-10-20T00:48:27.609Z,64.30
2022-10-20T00:50:56.412Z,64.30
2022-10-20T00:53:27.512Z,64.30
2022-10-20T00:55:57.967Z,64.30
2022-10-20T00:58:26.527Z,64.10
2022-10-20T01:00:56.550Z,64.10
2022-10-20T01:03:30.583Z,64.10
2022-10-20T01:05:57.733Z,64.00
2022-10-20T01:08:24.670Z,64.20
2022-10-20T01:11:23.211Z,64.30
2022-10-20T01:14:25.386Z,64.00
2022-10-20T01:17:04.285Z,64.20
2022-10-20T01:19:55.859Z,64.20
2022-10-20T01:22:41.247Z,64.00
2022-10-20T01:25:17.231Z,64.10
2022-10-20T01:27:50.961Z,64.30
2022-10-20T01:30:21.051Z,64.50
2022-10-20T01:32:53.988Z,64.30
2022-10-20T01:36:02.631Z,64.50
2022-10-20T01:38:44.733Z,64.40
2022-10-20T01:41:18.941Z,64.40
2022-10-20T01:43:48.325Z,64.50
2022-10-20T01:46:17.672Z,64.60
2022-10-20T01:48:46.216Z,64.40
2022-10-20T01:51:13.146Z,64.40
2022-10-20T01:53:40.001Z,64.60
2022-10-20T01:56:12.419Z,64.50
2022-10-20T01:58:56.139Z,64.50
2022-10-20T02:01:33.276Z,64.30
2022-10-20T02:04:02.661Z,64.70
2022-10-20T02:06:48.218Z,64.60
2022-10-20T02:09:24.104Z,64.70
2022-10-20T02:12:04.512Z,64.70
2022-10-20T02:14:33.306Z,64.70
2022-10-20T02:17:06.608Z,64.80
2022-10-20T02:19:40.010Z,64.70
2022-10-20T02:22:09.897Z,64.60
2022-10-20T02:24:38.619Z,64.70
2022-10-20T02:27:11.760Z,64.80
2022-10-20T02:29:44.745Z,64.80
2022-10-20T02:32:12.959Z,64.60
2022-10-20T02:34:42.381Z,64.70
2022-10-20T02:37:10.260Z,64.60
2022-10-20T02:39:37.235Z,64.70
2022-10-20T02:42:05.246Z,64.80
2022-10-20T02:44:32.349Z,64.60
2022-10-20T02:46:59.196Z,64.80
2022-10-20T02:49:27.345Z,64.60
2022-10-20T02:51:54.216Z,64.70
2022-10-20T02:54:21.203Z,64.70
2022-10-20T02:56:48.070Z,64.60
2022-10-20T02:59:16.983Z,64.50
2022-10-20T03:01:44.360Z,64.20
2022-10-20T03:04:11.778Z,64.40
2022-10-20T03:06:39.122Z,64.20
2022-10-20T03:09:06.038Z,64.20
2022-10-20T03:11:32.843Z,64.40
2022-10-20T03:13:59.767Z,64.50
2022-10-20T03:16:26.800Z,64.70
2022-10-20T03:18:54.010Z,64.60
2022-10-20T03:21:21.206Z,64.70
2022-10-20T03:23:48.531Z,64.20
2022-10-20T03:26:15.347Z,64.20
2022-10-20T03:28:42.207Z,64.50
2022-10-20T03:31:09.889Z,64.30
2022-10-20T03:33:36.783Z,63.90
2022-10-20T03:36:04.322Z,64.10
2022-10-20T03:38:31.146Z,64.00
2022-10-20T03:40:57.989Z,64.30
2022-10-20T03:43:25.308Z,64.50
2022-10-20T03:46:07.508Z,64.30
2022-10-20T03:48:34.906Z,64.40
2022-10-20T03:51:02.844Z,64.40
2022-10-20T03:53:30.037Z,64.70
2022-10-20T03:55:56.944Z,64.80
2022-10-20T03:58:23.895Z,64.80
2022-10-20T04:01:10.570Z,64.60
2022-10-20T04:03:37.464Z,64.50
2022-10-20T04:06:04.465Z,64.50
2022-10-20T04:08:31.614Z,64.50
2022-10-20T04:10:58.976Z,64.50
2022-10-20T04:13:25.965Z,65.30
2022-10-20T04:15:52.789Z,64.50
2022-10-20T04:18:19.633Z,65.10
2022-10-20T04:20:50.259Z,64.50
2022-10-20T04:23:17.286Z,64.60
2022-10-20T04:25:48.640Z,64.50
2022-10-20T04:28:17.959Z,64.50
2022-10-20T04:30:45.493Z,64.50
2022-10-20T04:33:13.433Z,64.50
2022-10-20T04:35:40.427Z,64.40
2022-10-20T04:38:07.764Z,64.30
2022-10-20T04:40:34.632Z,64.30
2022-10-20T04:43:01.664Z,64.10
2022-10-20T04:45:28.835Z,64.40
2022-10-20T04:47:56.000Z,64.30
2022-10-20T04:50:22.936Z,64.50
2022-10-20T04:53:07.907Z,64.50
2022-10-20T04:55:35.411Z,64.20
2022-10-20T04:58:02.819Z,64.10
2022-10-20T05:00:29.986Z,64.10
2022-10-20T05:02:56.926Z,64.30
2022-10-20T05:05:24.067Z,64.60
2022-10-20T05:07:50.933Z,63.90
2022-10-20T05:10:19.360Z,64.10
2022-10-20T05:12:46.167Z,64.30
2022-10-20T05:15:12.991Z,64.50
2022-10-20T05:17:39.834Z,64.50
2022-10-20T05:20:07.014Z,64.50
2022-10-20T05:22:34.272Z,64.80
2022-10-20T05:25:24.512Z,64.90
2022-10-20T05:27:48.160Z,65.00
2022-10-20T05:30:15.096Z,64.90
2022-10-20T05:32:41.861Z,64.90
2022-10-20T05:35:09.214Z,64.90
2022-10-20T05:37:36.628Z,64.90
2022-10-20T05:40:07.352Z,65.00
2022-10-20T05:42:35.078Z,65.30
2022-10-20T05:45:02.264Z,65.10
2022-10-20T05:47:30.319Z,65.00
2022-10-20T05:49:57.143Z,65.10
2022-10-20T05:52:24.132Z,64.90
2022-10-20T05:54:51.787Z,65.00
2022-10-20T05:57:18.624Z,65.60
2022-10-20T05:59:46.148Z,65.30
2022-10-20T06:02:13.180Z,65.10
2022-10-20T06:04:40.240Z,65.20
2022-10-20T06:07:09.936Z,65.30
2022-10-20T06:09:38.009Z,65.20
2022-10-20T06:12:05.858Z,65.10
2022-10-20T06:14:32.927Z,65.10
2022-10-20T06:16:59.988Z,65.30
2022-10-20T06:19:26.952Z,65.20
2022-10-20T06:21:54.298Z,65.20
2022-10-20T06:24:22.093Z,64.90
2022-10-20T06:26:49.029Z,65.00
2022-10-20T06:29:18.542Z,64.90
2022-10-20T06:31:48.295Z,65.30
2022-10-20T06:34:18.441Z,65.00
2022-10-20T06:36:46.296Z,64.90
2022-10-20T06:39:23.997Z,65.00
2022-10-20T06:41:53.339Z,65.30
2022-10-20T06:44:22.912Z,65.50
2022-10-20T06:46:52.578Z,65.00
2022-10-20T06:49:20.222Z,64.90
2022-10-20T06:51:47.468Z,65.90
2022-10-20T06:54:14.261Z,65.30
2022-10-20T06:56:41.325Z,65.10
2022-10-20T06:59:08.308Z,64.70
2022-10-20T07:01:37.541Z,65.20
2022-10-20T07:04:08.217Z,65.30
2022-10-20T07:06:37.967Z,65.10
2022-10-20T07:09:08.285Z,65.00
2022-10-20T07:11:36.111Z,65.90
2022-10-20T07:14:03.589Z,65.10
2022-10-20T07:16:33.625Z,65.30
2022-10-20T07:19:01.709Z,65.30
2022-10-20T07:21:34.632Z,65.20
2022-10-20T07:24:06.613Z,65.60
2022-10-20T07:26:36.540Z,65.10
2022-10-20T07:29:04.700Z,65.50
2022-10-20T07:31:45.772Z,65.10
2022-10-20T07:34:30.489Z,65.10
2022-10-20T07:36:57.627Z,65.10
2022-10-20T07:39:25.198Z,65.60
2022-10-20T07:41:52.278Z,65.40
2022-10-20T07:44:19.203Z,64.90
2022-10-20T07:46:46.110Z,65.30
2022-10-20T07:52:00.094Z,65.40
2022-10-20T07:54:26.946Z,65.20
2022-10-20T07:56:53.882Z,65.20
2022-10-20T07:59:20.748Z,65.60
2022-10-20T08:01:48.140Z,65.60
2022-10-20T08:04:15.208Z,65.70
2022-10-20T08:06:42.379Z,65.80
2022-10-20T08:09:09.310Z,65.60
2022-10-20T08:11:36.279Z,65.80
2022-10-20T08:14:03.263Z,65.60
2022-10-20T08:16:30.570Z,65.50
2022-10-20T08:19:13.954Z,65.80
2022-10-20T08:21:40.774Z,65.80
2022-10-20T08:24:07.655Z,66.10
2022-10-20T08:26:34.890Z,66.20
2022-10-20T08:29:02.762Z,66.20
2022-10-20T08:31:29.776Z,66.40
2022-10-20T08:33:56.928Z,66.50
2022-10-20T08:36:23.812Z,66.70
2022-10-20T08:38:50.840Z,67.00
2022-10-20T08:41:24.829Z,67.10
2022-10-20T08:43:54.973Z,67.10
2022-10-20T08:46:29.348Z,67.00
2022-10-20T08:48:57.292Z,67.40
2022-10-20T08:51:27.967Z,67.70
2022-10-20T08:53:58.858Z,67.70
2022-10-20T08:56:29.718Z,67.60
2022-10-20T08:58:57.665Z,67.60
2022-10-20T09:01:27.870Z,67.70
2022-10-20T09:04:02.975Z,67.70
2022-10-20T09:06:29.980Z,67.80
2022-10-20T09:08:57.556Z,67.90
2022-10-20T09:11:28.681Z,68.00
2022-10-20T09:13:55.629Z,68.00
2022-10-20T09:16:40.639Z,68.20
2022-10-20T09:19:18.817Z,68.20
2022-10-20T09:21:50.694Z,68.20
2022-10-20T09:24:18.788Z,68.40
2022-10-20T09:27:03.976Z,68.80
2022-10-20T09:29:38.998Z,68.90
2022-10-20T09:32:44.971Z,68.80
2022-10-20T09:35:33.904Z,68.90
2022-10-20T09:38:22.894Z,68.80
2022-10-20T09:41:13.572Z,69.10
2022-10-20T09:43:57.181Z,69.10
2022-10-20T09:46:28.655Z,69.30
2022-10-20T09:48:56.548Z,69.20
2022-10-20T09:51:26.435Z,69.30
2022-10-20T09:54:00.907Z,69.30
2022-10-20T09:56:33.068Z,69.40
2022-10-20T09:59:03.666Z,69.30
2022-10-20T10:01:30.700Z,69.30
2022-10-20T10:04:02.342Z,69.40
2022-10-20T10:06:38.167Z,69.30
2022-10-20T10:09:26.901Z,69.10
2022-10-20T10:12:21.008Z,69.30
2022-10-20T10:15:04.922Z,69.60
2022-10-20T10:17:41.614Z,69.50
2022-10-20T10:20:31.142Z,69.50
2022-10-20T10:23:25.058Z,69.40
2022-10-20T10:25:53.352Z,69.60
2022-10-20T10:28:31.226Z,69.80
2022-10-20T10:31:29.530Z,69.40
2022-10-20T10:34:21.323Z,69.50
2022-10-20T10:36:48.199Z,69.00
2022-10-20T10:39:15.956Z,69.20
2022-10-20T10:42:07.043Z,68.90
2022-10-20T10:45:14.835Z,68.70
2022-10-20T10:48:02.754Z,68.40
2022-10-20T10:50:48.072Z,68.80
2022-10-20T10:53:26.681Z,69.00
2022-10-20T10:56:27.137Z,69.40
2022-10-20T10:59:05.958Z,69.30
2022-10-20T11:01:47.991Z,69.00
2022-10-20T11:04:46.338Z,69.00
2022-10-20T11:07:16.013Z,69.10
2022-10-20T11:09:57.808Z,69.10
2022-10-20T11:12:42.256Z,68.60
2022-10-20T11:15:31.900Z,68.50
2022-10-20T11:18:17.818Z,68.90
2022-10-20T11:21:21.570Z,69.00
2022-10-20T11:23:53.633Z,68.70
2022-10-20T11:26:29.259Z,68.70
2022-10-20T11:28:58.738Z,68.50
2022-10-20T11:31:31.756Z,68.00
2022-10-20T11:34:10.556Z,68.90
2022-10-20T11:36:47.186Z,69.50
2022-10-20T11:39:28.211Z,69.50
2022-10-20T11:42:04.118Z,68.80
2022-10-20T11:44:35.046Z,68.80
2022-10-20T11:47:07.637Z,68.20
2022-10-20T11:49:34.802Z,67.90
2022-10-20T11:52:32.398Z,67.70
2022-10-20T11:55:20.536Z,67.60
2022-10-20T11:58:15.274Z,67.60
2022-10-20T12:01:22.934Z,67.10
2022-10-20T12:04:08.527Z,66.80
2022-10-20T12:07:01.729Z,67.10
2022-10-20T12:09:49.440Z,66.70
2022-10-20T12:12:27.759Z,67.20
2022-10-20T12:15:00.517Z,66.80
2022-10-20T12:17:34.506Z,67.90
2022-10-20T12:20:20.098Z,67.80
2022-10-20T12:22:48.459Z,67.30
2022-10-20T12:25:37.259Z,66.80
2022-10-20T12:28:22.840Z,66.80
2022-10-20T12:31:00.037Z,66.30
2022-10-20T12:33:37.748Z,66.50
2022-10-20T12:36:16.541Z,66.30
2022-10-20T12:39:11.994Z,66.50
2022-10-20T12:41:45.847Z,66.60
2022-10-20T12:44:18.273Z,66.70
2022-10-20T12:47:16.773Z,66.40
2022-10-20T12:49:55.738Z,66.20
2022-10-20T12:52:28.310Z,66.00
2022-10-20T12:55:08.177Z,66.00
2022-10-20T12:57:41.636Z,65.90
2022-10-20T13:00:28.902Z,65.70
2022-10-20T13:02:57.819Z,65.90
2022-10-20T13:05:42.121Z,66.00
2022-10-20T13:08:20.840Z,65.80
2022-10-20T13:10:49.477Z,65.70
2022-10-20T13:13:19.078Z,65.80
2022-10-20T13:15:47.508Z,65.80
2022-10-20T13:18:17.347Z,65.60
2022-10-20T13:21:06.929Z,65.50
2022-10-20T13:23:46.447Z,65.60
2022-10-20T13:26:28.619Z,65.50
2022-10-20T13:28:58.603Z,65.70
2022-10-20T13:31:40.577Z,65.80
2022-10-20T13:34:33.950Z,65.90
2022-10-20T13:37:12.959Z,65.70
2022-10-20T13:40:23.359Z,65.70
2022-10-20T13:43:10.597Z,65.50
2022-10-20T13:45:49.641Z,65.60
2022-10-20T13:48:51.485Z,65.80
2022-10-20T13:51:21.056Z,65.50
2022-10-20T13:53:52.561Z,65.60
2022-10-20T13:56:35.000Z,65.50
2022-10-20T13:59:28.847Z,65.50
2022-10-20T14:01:59.427Z,65.50
2022-10-20T14:04:32.966Z,65.60
2022-10-20T14:07:04.370Z,65.40
2022-10-20T14:09:31.413Z,65.40
2022-10-20T14:12:23.698Z,65.90
2022-10-20T14:14:50.997Z,65.30
2022-10-20T14:17:23.382Z,65.40
2022-10-20T14:19:50.899Z,65.20
2022-10-20T14:22:24.053Z,65.20
2022-10-20T14:24:53.672Z,65.10
2022-10-20T14:27:30.637Z,65.00
2022-10-20T14:29:58.573Z,64.90
2022-10-20T14:32:31.160Z,65.00
2022-10-20T14:35:01.358Z,64.80
2022-10-20T14:37:36.546Z,65.10
2022-10-20T14:40:08.216Z,64.90
2022-10-20T14:42:35.468Z,64.90
2022-10-20T14:45:03.863Z,64.90
2022-10-20T14:47:39.980Z,64.90
2022-10-20T14:50:07.790Z,64.80
2022-10-20T14:52:38.745Z,64.80
2022-10-20T14:55:37.305Z,64.80
2022-10-20T14:58:04.191Z,64.70
2022-10-20T15:00:36.397Z,64.90
2022-10-20T15:03:07.225Z,64.90
2022-10-20T15:05:39.856Z,65.00
2022-10-20T15:08:17.500Z,65.00
2022-10-20T15:10:45.067Z,65.00
2022-10-20T15:13:41.364Z,64.90
2022-10-20T15:16:35.880Z,64.70
2022-10-20T15:19:26.597Z,64.80
2022-10-20T15:24:40.919Z,64.90
2022-10-20T15:27:15.893Z,65.00
2022-10-20T15:29:49.644Z,65.00
2022-10-20T15:32:16.981Z,64.90
2022-10-20T15:34:44.837Z,65.00
2022-10-20T15:37:11.827Z,65.30
2022-10-20T15:39:38.681Z,65.20
2022-10-20T15:42:11.050Z,65.10
2022-10-20T15:44:38.251Z,65.10
2022-10-20T15:47:05.206Z,65.00
2022-10-20T15:49:32.054Z,65.20
2022-10-20T15:51:58.913Z,65.20
2022-10-20T15:54:26.168Z,65.20
2022-10-20T15:56:53.082Z,65.20
2022-10-20T15:59:19.944Z,65.20
2022-10-20T16:01:46.789Z,65.20
2022-10-20T16:04:18.244Z,65.30
2022-10-20T16:06:45.147Z,65.30
2022-10-20T16:09:15.098Z,65.40
2022-10-20T16:11:43.680Z,65.40
2022-10-20T16:14:10.791Z,65.50
2022-10-20T16:16:37.685Z,65.60
2022-10-20T16:19:05.277Z,65.60
2022-10-20T16:21:33.204Z,65.60
2022-10-20T16:24:01.105Z,65.60
2022-10-20T16:26:28.427Z,65.60
2022-10-20T16:28:55.449Z,65.70
2022-10-20T16:31:22.361Z,65.80
2022-10-20T16:33:49.307Z,65.80
2022-10-20T16:36:18.002Z,65.80
2022-10-20T16:38:44.859Z,66.50
2022-10-20T16:41:14.441Z,65.80
2022-10-20T16:43:43.939Z,65.90
2022-10-20T16:46:12.874Z,66.00
2022-10-20T16:48:42.615Z,66.00
2022-10-20T16:51:12.415Z,65.90
2022-10-20T16:53:39.539Z,65.90
2022-10-20T16:56:07.863Z,66.00
2022-10-20T16:58:35.080Z,65.90
2022-10-20T17:01:08.813Z,66.60
2022-10-20T17:03:36.946Z,65.90
2022-10-20T17:06:07.956Z,66.00
2022-10-20T17:08:36.285Z,66.00
2022-10-20T17:11:11.889Z,66.10
2022-10-20T17:13:39.402Z,66.00
2022-10-20T17:16:09.481Z,66.00
2022-10-20T17:18:36.933Z,66.00
2022-10-20T17:21:04.569Z,66.10
2022-10-20T17:23:33.991Z,66.20
2022-10-20T17:26:04.491Z,66.10
2022-10-20T17:28:33.235Z,66.10
2022-10-20T17:31:00.504Z,66.10
2022-10-20T17:33:29.652Z,66.20
2022-10-20T17:36:00.752Z,66.20
2022-10-20T17:38:29.467Z,67.00
2022-10-20T17:40:56.509Z,66.20
2022-10-20T17:43:23.550Z,66.10
2022-10-20T17:46:02.202Z,66.20
2022-10-20T17:48:29.496Z,66.20
2022-10-20T17:51:12.259Z,66.30
2022-10-20T17:53:41.613Z,66.20
2022-10-20T17:56:12.450Z,66.50
2022-10-20T17:58:41.239Z,66.40
2022-10-20T18:01:29.592Z,66.60
2022-10-20T18:04:02.353Z,66.50
2022-10-20T18:06:34.320Z,67.30
2022-10-20T18:09:06.004Z,66.50
2022-10-20T18:11:34.851Z,66.60
2022-10-20T18:14:02.503Z,66.60
2022-10-20T18:16:31.180Z,66.60
2022-10-20T18:18:59.644Z,66.40
2022-10-20T18:21:28.803Z,66.50
2022-10-20T18:24:02.763Z,66.60
2022-10-20T18:26:32.080Z,66.50
2022-10-20T18:29:00.238Z,66.50
2022-10-20T18:31:30.695Z,66.50
2022-10-20T18:34:04.462Z,67.30
2022-10-20T18:36:36.900Z,66.40
2022-10-20T18:39:07.272Z,66.50
2022-10-20T18:41:38.129Z,66.40
2022-10-20T18:44:08.244Z,66.50
2022-10-20T18:46:35.720Z,66.40
2022-10-20T18:49:05.142Z,66.40
2022-10-20T18:51:32.766Z,66.50
2022-10-20T18:54:00.859Z,66.70
2022-10-20T18:56:29.428Z,67.00
2022-10-20T18:58:59.249Z,67.10
2022-10-20T19:01:28.527Z,67.40
2022-10-20T19:03:57.215Z,67.50
2022-10-20T19:06:30.009Z,67.50
2022-10-20T19:09:02.204Z,67.50
2022-10-20T19:11:31.647Z,67.40
2022-10-20T19:13:59.299Z,67.30
2022-10-20T19:16:32.218Z,67.10
2022-10-20T19:19:01.822Z,67.00
2022-10-20T19:21:30.104Z,66.90
2022-10-20T19:24:03.600Z,66.70
2022-10-20T19:26:33.332Z,66.80
2022-10-20T19:29:05.209Z,66.80
2022-10-20T19:31:37.364Z,66.80
2022-10-20T19:34:09.749Z,66.80
2022-10-20T19:36:37.073Z,66.90
2022-10-20T19:39:05.695Z,66.80
2022-10-20T19:41:32.836Z,66.80
2022-10-20T19:44:00.072Z,66.80
2022-10-20T19:46:27.104Z,66.90
2022-10-20T19:48:54.121Z,66.80
2022-10-20T19:51:21.694Z,66.80
2022-10-20T19:53:50.472Z,66.80
2022-10-20T19:56:17.655Z,66.80
2022-10-20T19:58:46.657Z,66.80
2022-10-20T20:01:14.427Z,66.80
2022-10-20T20:03:41.750Z,66.80
2022-10-20T20:06:11.821Z,66.80
2022-10-20T20:08:38.684Z,66.80
2022-10-20T20:11:05.818Z,66.80
2022-10-20T20:13:32.733Z,66.90
2022-10-20T20:16:07.209Z,66.80
2022-10-20T20:18:35.566Z,67.60
2022-10-20T20:21:04.858Z,66.80
2022-10-20T20:23:47.740Z,66.70
2022-10-20T20:26:21.157Z,66.80
2022-10-20T20:28:48.050Z,66.70
2022-10-20T20:31:15.260Z,66.80
2022-10-20T20:33:42.140Z,66.80
2022-10-20T20:36:09.479Z,66.80
2022-10-20T20:38:39.046Z,66.80
2022-10-20T20:41:10.298Z,66.80
2022-10-20T20:43:37.502Z,66.70
2022-10-20T20:46:06.196Z,66.70
2022-10-20T20:48:35.798Z,66.60
2022-10-20T20:51:02.693Z,66.80
2022-10-20T20:53:29.700Z,66.80
2022-10-20T20:55:58.584Z,66.90
2022-10-20T20:58:27.090Z,67.10
2022-10-20T21:01:04.805Z,67.00
2022-10-20T21:03:32.659Z,67.00
2022-10-20T21:06:08.450Z,67.00
2022-10-20T21:08:39.994Z,67.10
2022-10-20T21:11:12.525Z,67.10
2022-10-20T21:13:40.812Z,67.10
2022-10-20T21:16:13.455Z,67.10
2022-10-20T21:18:42.216Z,67.20
2022-10-20T21:21:13.881Z,67.30
2022-10-20T21:23:41.146Z,67.30
2022-10-20T21:26:09.802Z,67.30
2022-10-20T21:28:36.823Z,67.10
2022-10-20T21:31:08.281Z,67.10
2022-10-20T21:33:36.697Z,67.20
2022-10-20T21:36:06.447Z,67.30
2022-10-20T21:38:34.697Z,67.30
2022-10-20T21:41:18.494Z,67.30
2022-10-20T21:43:47.591Z,67.20
2022-10-20T21:46:24.932Z,67.20
2022-10-20T21:48:54.127Z,67.20
2022-10-20T21:51:29.401Z,67.30
2022-10-20T21:54:01.740Z,67.20
2022-10-20T21:56:29.067Z,67.20
2022-10-20T21:58:56.120Z,67.20
2022-10-20T22:01:24.771Z,67.20
2022-10-20T22:03:53.301Z,67.20
2022-10-20T22:06:23.519Z,67.30
2022-10-20T22:08:52.666Z,67.30
2022-10-20T22:11:22.563Z,67.20
2022-10-20T22:13:49.695Z,67.20
2022-10-20T22:16:20.927Z,67.30
2022-10-20T22:18:47.865Z,67.30
2022-10-20T22:21:17.930Z,67.90
2022-10-20T22:23:45.386Z,67.10
2022-10-20T22:26:13.126Z,67.20
2022-10-20T22:28:40.327Z,67.20
2022-10-20T22:31:07.819Z,67.30
2022-10-20T22:33:35.387Z,67.30
2022-10-20T22:36:03.625Z,67.30
2022-10-20T22:38:30.902Z,67.30
2022-10-20T22:40:59.357Z,67.30
2022-10-20T22:43:26.856Z,67.40
2022-10-20T22:45:53.851Z,67.30
2022-10-20T22:48:21.078Z,67.20
2022-10-20T22:50:48.020Z,67.20
2022-10-20T22:53:14.900Z,67.40
2022-10-20T22:55:41.789Z,67.20
2022-10-20T22:58:08.797Z,67.20
2022-10-20T23:00:35.778Z,67.20
2022-10-20T23:03:02.616Z,67.10
2022-10-20T23:05:29.446Z,67.00
2022-10-20T23:07:56.253Z,66.90
2022-10-20T23:10:23.303Z,66.90
2022-10-20T23:12:50.294Z,66.80
2022-10-20T23:15:17.125Z,66.80
2022-10-20T23:17:44.502Z,66.70
2022-10-20T23:20:11.754Z,66.60
2022-10-20T23:22:38.700Z,66.60
2022-10-20T23:25:05.899Z,66.60
2022-10-20T23:27:36.703Z,67.30
2022-10-20T23:30:04.022Z,66.30
2022-10-20T23:32:30.864Z,66.30
2022-10-20T23:34:57.784Z,66.30
2022-10-20T23:37:24.664Z,66.30
2022-10-20T23:39:51.460Z,66.40
2022-10-20T23:42:18.287Z,66.30
2022-10-20T23:44:45.550Z,66.30
2022-10-20T23:47:12.424Z,66.10
2022-10-20T23:49:39.202Z,66.00
2022-10-20T23:52:06.076Z,66.10
2022-10-20T23:54:33.074Z,66.00
2022-10-20T23:56:59.902Z,66.10
2022-10-20T23:59:26.714Z,66.10
